sensor_id;sensor_type;location;lat;lon;timestamp;pressure;altitude;pressure_sealevel;temperature;humidity
25232;BME280;13176;51.140;6.290;2023-02-03T00:01:44;101850.97;;;11.28;87.34
25232;BME280;13176;51.140;6.290;2023-02-03T00:04:11;101861.47;;;11.67;85.86
25232;BME280;13176;51.140;6.290;2023-02-03T00:06:37;101805.72;;;11.80;84.29
25232;BME280;13176;51.140;6.290;2023-02-03T00:09:04;101838.84;;;11.79;84.45
25232;BME280;13176;51.140;6.290;2023-02-03T00:11:31;101749.06;;;11.22;84.54
25232;BME280;13176;51.140;6.290;2023-02-03T00:13:58;101862.38;;;11.81;85.24
25232;BME280;13176;51.140;6.290;2023-02-03T00:16:24;101736.00;;;10.92;86.12
25232;BME280;13176;51.140;6.290;2023-02-03T00:18:51;101801.38;;;11.58;84.57
25232;BME280;13176;51.140;6.290;2023-02-03T00:21:17;101736.88;;;11.33;83.86
25232;BME280;13176;51.140;6.290;2023-02-03T00:23:43;101841.44;;;11.96;83.61
25232;BME280;13176;51.140;6.290;2023-02-03T00:26:15;101846.69;;;11.93;83.86
25232;BME280;13176;51.140;6.290;2023-02-03T00:28:42;101733.38;;;11.07;85.15
25232;BME280;13176;51.140;6.290;2023-02-03T00:31:16;101830.97;;;11.51;86.10
25232;BME280;13176;51.140;6.290;2023-02-03T00:33:43;101803.97;;;11.59;84.79
25232;BME280;13176;51.140;6.290;2023-02-03T00:36:09;101798.75;;;11.65;84.06
25232;BME280;13176;51.140;6.290;2023-02-03T00:38:36;101809.22;;;11.59;85.05
25232;BME280;13176;51.140;6.290;2023-02-03T00:41:02;101668.97;;;10.96;84.00
25232;BME280;13176;51.140;6.290;2023-02-03T00:43:29;101764.75;;;11.28;85.74
25232;BME280;13176;51.140;6.290;2023-02-03T00:45:55;101682.03;;;10.91;84.71
25232;BME280;13176;51.140;6.290;2023-02-03T00:48:22;101763.91;;;11.54;84.28
25232;BME280;13176;51.140;6.290;2023-02-03T00:50:48;101752.56;;;11.18;85.70
25232;BME280;13176;51.140;6.290;2023-02-03T00:53:15;101792.63;;;11.86;84.06
25232;BME280;13176;51.140;6.290;2023-02-03T00:55:42;101734.28;;;11.27;84.67
25232;BME280;13176;51.140;6.290;2023-02-03T00:58:09;101776.94;;;11.47;84.41
25232;BME280;13176;51.140;6.290;2023-02-03T01:00:35;101715.94;;;10.94;85.13
25232;BME280;13176;51.140;6.290;2023-02-03T01:03:01;101812.66;;;11.52;85.59
25232;BME280;13176;51.140;6.290;2023-02-03T01:05:28;101822.25;;;11.70;84.76
25232;BME280;13176;51.140;6.290;2023-02-03T01:07:55;101837.97;;;11.85;84.21
25232;BME280;13176;51.140;6.290;2023-02-03T01:10:21;101831.00;;;11.93;83.27
25232;BME280;13176;51.140;6.290;2023-02-03T01:12:47;101806.59;;;11.70;83.94
25232;BME280;13176;51.140;6.290;2023-02-03T01:15:14;101839.69;;;11.96;83.75
25232;BME280;13176;51.140;6.290;2023-02-03T01:17:40;101842.31;;;11.77;84.34
25232;BME280;13176;51.140;6.290;2023-02-03T01:20:07;101750.81;;;11.41;82.98
25232;BME280;13176;51.140;6.290;2023-02-03T01:22:34;101862.38;;;11.78;83.95
25232;BME280;13176;51.140;6.290;2023-02-03T01:25:00;101726.44;;;11.15;83.80
25232;BME280;13176;51.140;6.290;2023-02-03T01:27:26;101874.59;;;11.91;83.68
25232;BME280;13176;51.140;6.290;2023-02-03T01:29:53;101770.81;;;11.20;84.50
25232;BME280;13176;51.140;6.290;2023-02-03T01:32:19;101851.91;;;11.72;84.52
25232;BME280;13176;51.140;6.290;2023-02-03T01:34:46;101832.75;;;11.77;83.89
25232;BME280;13176;51.140;6.290;2023-02-03T01:37:12;101846.59;;;11.33;85.35
25232;BME280;13176;51.140;6.290;2023-02-03T01:39:42;101881.53;;;11.77;83.84
25232;BME280;13176;51.140;6.290;2023-02-03T01:42:13;101883.28;;;12.05;83.30
25232;BME280;13176;51.140;6.290;2023-02-03T01:44:48;101637.56;;;10.42;83.55
25232;BME280;13176;51.140;6.290;2023-02-03T01:47:24;101888.53;;;11.87;83.31
25232;BME280;13176;51.140;6.290;2023-02-03T01:50:07;101784.78;;;11.23;84.01
25232;BME280;13176;51.140;6.290;2023-02-03T01:52:35;101768.19;;;10.97;85.37
25232;BME280;13176;51.140;6.290;2023-02-03T01:55:05;101851.91;;;11.75;83.54
25232;BME280;13176;51.140;6.290;2023-02-03T01:57:37;101874.59;;;11.80;83.96
25232;BME280;13176;51.140;6.290;2023-02-03T02:00:06;101881.53;;;12.25;81.70
25232;BME280;13176;51.140;6.290;2023-02-03T02:02:33;101736.88;;;11.18;82.96
25232;BME280;13176;51.140;6.290;2023-02-03T02:05:11;101853.66;;;11.64;84.56
25232;BME280;13176;51.140;6.290;2023-02-03T02:07:40;101858.03;;;11.69;84.07
25232;BME280;13176;51.140;6.290;2023-02-03T02:10:08;101857.16;;;11.96;82.58
25232;BME280;13176;51.140;6.290;2023-02-03T02:12:35;101753.44;;;11.23;83.06
25232;BME280;13176;51.140;6.290;2023-02-03T02:15:02;101780.47;;;11.64;81.87
25232;BME280;13176;51.140;6.290;2023-02-03T02:27:59;101865.84;;;12.11;82.67
25232;BME280;13176;51.140;6.290;2023-02-03T02:30:42;101726.44;;;11.24;82.98
25232;BME280;13176;51.140;6.290;2023-02-03T02:33:36;101841.41;;;12.23;81.74
25232;BME280;13176;51.140;6.290;2023-02-03T02:38:45;101846.63;;;12.14;81.99
25232;BME280;13176;51.140;6.290;2023-02-03T02:41:48;101844.91;;;12.07;82.39
25232;BME280;13176;51.140;6.290;2023-02-03T02:44:32;101819.59;;;12.12;81.04
25232;BME280;13176;51.140;6.290;2023-02-03T02:47:05;101824.88;;;11.82;82.82
25232;BME280;13176;51.140;6.290;2023-02-03T02:49:42;101796.13;;;11.83;82.14
25232;BME280;13176;51.140;6.290;2023-02-03T02:52:12;101834.47;;;11.71;83.23
25232;BME280;13176;51.140;6.290;2023-02-03T02:54:43;101857.16;;;11.63;84.22
25232;BME280;13176;51.140;6.290;2023-02-03T02:57:13;101849.28;;;11.84;83.05
25232;BME280;13176;51.140;6.290;2023-02-03T02:59:41;101733.38;;;11.34;81.46
25232;BME280;13176;51.140;6.290;2023-02-03T03:02:09;101820.53;;;11.90;82.27
25232;BME280;13176;51.140;6.290;2023-02-03T03:04:37;101840.56;;;11.89;82.12
25232;BME280;13176;51.140;6.290;2023-02-03T03:07:07;101856.25;;;11.98;81.97
25232;BME280;13176;51.140;6.290;2023-02-03T03:09:47;101853.66;;;11.97;82.02
25232;BME280;13176;51.140;6.290;2023-02-03T03:12:26;101764.75;;;11.46;81.94
25232;BME280;13176;51.140;6.290;2023-02-03T03:14:58;101775.19;;;11.88;80.37
25232;BME280;13176;51.140;6.290;2023-02-03T03:17:32;101829.19;;;12.31;80.51
25232;BME280;13176;51.140;6.290;2023-02-03T03:20:05;101824.88;;;12.04;80.94
25232;BME280;13176;51.140;6.290;2023-02-03T03:22:37;101822.28;;;11.97;80.69
25232;BME280;13176;51.140;6.290;2023-02-03T03:25:13;101848.38;;;12.24;80.61
25232;BME280;13176;51.140;6.290;2023-02-03T03:27:45;101834.44;;;12.10;80.61
25232;BME280;13176;51.140;6.290;2023-02-03T03:30:21;101789.16;;;11.70;81.58
25232;BME280;13176;51.140;6.290;2023-02-03T03:32:49;101822.22;;;12.03;80.92
25232;BME280;13176;51.140;6.290;2023-02-03T03:35:16;101808.31;;;11.86;81.45
25232;BME280;13176;51.140;6.290;2023-02-03T03:37:47;101832.69;;;12.03;81.36
25232;BME280;13176;51.140;6.290;2023-02-03T03:40:22;101844.91;;;11.93;81.94
25232;BME280;13176;51.140;6.290;2023-02-03T03:42:57;101771.75;;;11.65;81.77
25232;BME280;13176;51.140;6.290;2023-02-03T03:45:34;101722.94;;;11.21;82.08
25232;BME280;13176;51.140;6.290;2023-02-03T03:48:31;101839.66;;;12.19;81.10
25232;BME280;13176;51.140;6.290;2023-02-03T03:51:03;101732.50;;;11.35;82.04
25232;BME280;13176;51.140;6.290;2023-02-03T03:53:32;101797.88;;;11.68;82.10
25232;BME280;13176;51.140;6.290;2023-02-03T03:56:00;101836.22;;;11.90;81.79
25232;BME280;13176;51.140;6.290;2023-02-03T03:58:31;101842.28;;;12.04;81.68
25232;BME280;13176;51.140;6.290;2023-02-03T04:01:01;101776.94;;;11.71;81.45
25232;BME280;13176;51.140;6.290;2023-02-03T04:03:54;101697.69;;;11.21;81.63
25232;BME280;13176;51.140;6.290;2023-02-03T04:06:22;101781.28;;;11.97;80.83
25232;BME280;13176;51.140;6.290;2023-02-03T04:08:49;101823.13;;;12.09;81.35
25232;BME280;13176;51.140;6.290;2023-02-03T04:11:15;101692.47;;;11.18;82.13
25232;BME280;13176;51.140;6.290;2023-02-03T04:14:02;101806.59;;;11.79;82.83
25232;BME280;13176;51.140;6.290;2023-02-03T04:16:28;101769.13;;;11.72;81.83
25232;BME280;13176;51.140;6.290;2023-02-03T04:18:55;101688.09;;;11.05;82.69
25232;BME280;13176;51.140;6.290;2023-02-03T04:21:24;101789.19;;;11.63;82.44
25232;BME280;13176;51.140;6.290;2023-02-03T04:23:50;101644.56;;;10.68;82.98
25232;BME280;13176;51.140;6.290;2023-02-03T04:26:17;101641.13;;;10.87;81.83
25232;BME280;13176;51.140;6.290;2023-02-03T04:28:43;101721.19;;;11.48;81.13
25232;BME280;13176;51.140;6.290;2023-02-03T04:31:10;101695.94;;;11.29;81.59
25232;BME280;13176;51.140;6.290;2023-02-03T04:33:36;101818.78;;;11.95;81.24
25232;BME280;13176;51.140;6.290;2023-02-03T04:36:03;101800.47;;;11.93;80.98
25232;BME280;13176;51.140;6.290;2023-02-03T04:38:29;101694.19;;;11.21;81.01
25232;BME280;13176;51.140;6.290;2023-02-03T04:40:56;101831.00;;;11.81;81.32
25232;BME280;13176;51.140;6.290;2023-02-03T04:43:22;101696.81;;;11.10;81.30
25232;BME280;13176;51.140;6.290;2023-02-03T04:45:49;101717.69;;;11.40;80.29
25232;BME280;13176;51.140;6.290;2023-02-03T04:48:15;101815.28;;;11.87;81.01
25232;BME280;13176;51.140;6.290;2023-02-03T04:50:42;101755.19;;;11.55;81.03
25232;BME280;13176;51.140;6.290;2023-02-03T04:53:08;101766.53;;;11.59;80.98
25232;BME280;13176;51.140;6.290;2023-02-03T04:55:35;101684.63;;;11.20;80.69
25232;BME280;13176;51.140;6.290;2023-02-03T04:58:01;101635.88;;;10.93;80.43
25232;BME280;13176;51.140;6.290;2023-02-03T05:00:28;101735.13;;;11.44;80.69
25232;BME280;13176;51.140;6.290;2023-02-03T05:02:55;101745.56;;;11.71;79.87
25232;BME280;13176;51.140;6.290;2023-02-03T05:05:21;101705.50;;;11.33;80.64
25232;BME280;13176;51.140;6.290;2023-02-03T05:07:48;101700.28;;;11.33;80.01
25232;BME280;13176;51.140;6.290;2023-02-03T05:10:16;101708.13;;;11.40;80.04
25232;BME280;13176;51.140;6.290;2023-02-03T05:12:48;101817.03;;;12.04;79.57
25232;BME280;13176;51.140;6.290;2023-02-03T05:15:15;101824.00;;;11.89;80.51
25232;BME280;13176;51.140;6.290;2023-02-03T05:17:41;101738.59;;;11.40;80.25
25232;BME280;13176;51.140;6.290;2023-02-03T05:20:08;101724.66;;;11.41;79.49
25232;BME280;13176;51.140;6.290;2023-02-03T05:22:35;101736.91;;;11.60;78.81
25232;BME280;13176;51.140;6.290;2023-02-03T05:25:02;101810.00;;;12.11;78.97
25232;BME280;13176;51.140;6.290;2023-02-03T05:27:29;101776.94;;;11.83;79.34
25232;BME280;13176;51.140;6.290;2023-02-03T05:29:55;101673.31;;;11.35;78.35
25232;BME280;13176;51.140;6.290;2023-02-03T05:32:22;101795.19;;;12.10;78.02
25232;BME280;13176;51.140;6.290;2023-02-03T05:34:48;101786.50;;;12.00;78.21
25232;BME280;13176;51.140;6.290;2023-02-03T05:37:15;101793.44;;;12.12;78.25
25232;BME280;13176;51.140;6.290;2023-02-03T05:39:41;101678.53;;;11.27;79.06
25232;BME280;13176;51.140;6.290;2023-02-03T05:42:08;101663.75;;;11.15;78.86
25232;BME280;13176;51.140;6.290;2023-02-03T05:44:38;101762.16;;;11.80;77.95
25232;BME280;13176;51.140;6.290;2023-02-03T05:47:05;101722.94;;;11.22;79.50
25232;BME280;13176;51.140;6.290;2023-02-03T05:49:31;101681.16;;;11.16;79.06
25232;BME280;13176;51.140;6.290;2023-02-03T05:51:58;101703.75;;;11.35;78.42
25232;BME280;13176;51.140;6.290;2023-02-03T05:54:24;101715.97;;;11.32;78.48
25232;BME280;13176;51.140;6.290;2023-02-03T05:56:51;101740.34;;;11.32;78.59
25232;BME280;13176;51.140;6.290;2023-02-03T05:59:17;101814.44;;;11.73;78.83
25232;BME280;13176;51.140;6.290;2023-02-03T06:01:44;101746.44;;;11.67;76.98
25232;BME280;13176;51.140;6.290;2023-02-03T06:04:10;101827.50;;;11.79;78.11
25232;BME280;13176;51.140;6.290;2023-02-03T06:06:37;101836.19;;;12.05;77.27
25232;BME280;13176;51.140;6.290;2023-02-03T06:09:06;101847.53;;;12.11;77.39
25232;BME280;13176;51.140;6.290;2023-02-03T06:11:33;101818.78;;;11.74;78.50
25232;BME280;13176;51.140;6.290;2023-02-03T06:14:01;101783.06;;;11.80;77.26
25232;BME280;13176;51.140;6.290;2023-02-03T06:16:28;101823.16;;;11.90;77.31
25232;BME280;13176;51.140;6.290;2023-02-03T06:18:55;101869.31;;;12.12;77.76
25232;BME280;13176;51.140;6.290;2023-02-03T06:21:26;101829.22;;;12.04;77.08
25232;BME280;13176;51.140;6.290;2023-02-03T06:23:53;101812.66;;;12.00;76.85
25232;BME280;13176;51.140;6.290;2023-02-03T06:26:21;101731.63;;;11.36;77.84
25232;BME280;13176;51.140;6.290;2023-02-03T06:28:47;101727.31;;;11.54;77.06
25232;BME280;13176;51.140;6.290;2023-02-03T06:31:13;101729.88;;;11.29;77.81
25232;BME280;13176;51.140;6.290;2023-02-03T06:33:40;101818.75;;;12.10;76.76
25232;BME280;13176;51.140;6.290;2023-02-03T06:36:07;101728.16;;;11.43;77.14
25232;BME280;13176;51.140;6.290;2023-02-03T06:38:33;101682.88;;;11.41;76.97
25232;BME280;13176;51.140;6.290;2023-02-03T06:41:00;101729.91;;;11.50;77.66
25232;BME280;13176;51.140;6.290;2023-02-03T06:43:26;101770.00;;;11.74;77.26
25232;BME280;13176;51.140;6.290;2023-02-03T06:45:55;101794.38;;;11.93;77.84
25232;BME280;13176;51.140;6.290;2023-02-03T06:48:21;101788.28;;;11.94;77.44
25232;BME280;13176;51.140;6.290;2023-02-03T06:50:49;101827.47;;;12.03;77.54
25232;BME280;13176;51.140;6.290;2023-02-03T06:53:16;101815.28;;;11.96;78.01
25232;BME280;13176;51.140;6.290;2023-02-03T06:55:42;101845.78;;;11.95;78.61
25232;BME280;13176;51.140;6.290;2023-02-03T06:58:08;101746.44;;;11.37;78.72
25232;BME280;13176;51.140;6.290;2023-02-03T07:00:35;101716.84;;;11.41;77.72
25232;BME280;13176;51.140;6.290;2023-02-03T07:03:01;101714.25;;;11.56;77.50
25232;BME280;13176;51.140;6.290;2023-02-03T07:05:28;101749.94;;;11.69;77.72
25232;BME280;13176;51.140;6.290;2023-02-03T07:07:55;101737.72;;;11.71;77.55
25232;BME280;13176;51.140;6.290;2023-02-03T07:10:21;101795.25;;;11.83;78.55
25232;BME280;13176;51.140;6.290;2023-02-03T07:12:48;101838.81;;;11.91;79.04
25232;BME280;13176;51.140;6.290;2023-02-03T07:15:16;101728.16;;;11.46;78.11
25232;BME280;13176;51.140;6.290;2023-02-03T07:17:43;101838.81;;;12.15;77.58
25232;BME280;13176;51.140;6.290;2023-02-03T07:20:09;101847.53;;;12.17;77.17
25232;BME280;13176;51.140;6.290;2023-02-03T07:22:36;101811.81;;;11.91;77.59
25232;BME280;13176;51.140;6.290;2023-02-03T07:25:04;101801.31;;;12.06;76.73
25232;BME280;13176;51.140;6.290;2023-02-03T07:27:30;101820.47;;;12.14;76.49
25232;BME280;13176;51.140;6.290;2023-02-03T07:29:56;101830.09;;;11.89;77.72
25232;BME280;13176;51.140;6.290;2023-02-03T07:32:23;101770.84;;;11.51;77.44
25232;BME280;13176;51.140;6.290;2023-02-03T07:34:49;101792.66;;;11.72;77.21
25232;BME280;13176;51.140;6.290;2023-02-03T07:37:15;101817.03;;;11.97;76.68
25232;BME280;13176;51.140;6.290;2023-02-03T07:39:42;101843.13;;;12.27;76.06
25232;BME280;13176;51.140;6.290;2023-02-03T07:42:08;101794.38;;;11.69;77.54
25232;BME280;13176;51.140;6.290;2023-02-03T07:44:35;101843.13;;;12.27;76.04
25232;BME280;13176;51.140;6.290;2023-02-03T07:47:01;101719.47;;;11.26;77.28
25232;BME280;13176;51.140;6.290;2023-02-03T07:49:27;101763.88;;;11.44;78.31
25232;BME280;13176;51.140;6.290;2023-02-03T07:51:54;101824.88;;;11.70;79.40
25232;BME280;13176;51.140;6.290;2023-02-03T07:54:21;101710.75;;;11.18;78.66
25232;BME280;13176;51.140;6.290;2023-02-03T07:56:47;101750.81;;;11.41;78.34
25232;BME280;13176;51.140;6.290;2023-02-03T07:59:15;101785.69;;;11.64;77.82
25232;BME280;13176;51.140;6.290;2023-02-03T08:01:42;101844.94;;;11.89;77.43
25232;BME280;13176;51.140;6.290;2023-02-03T08:04:08;101878.88;;;12.23;77.00
25232;BME280;13176;51.140;6.290;2023-02-03T08:06:37;101853.59;;;12.27;75.83
25232;BME280;13176;51.140;6.290;2023-02-03T08:09:03;101851.91;;;11.90;77.04
25232;BME280;13176;51.140;6.290;2023-02-03T08:11:30;101885.00;;;12.27;76.69
25232;BME280;13176;51.140;6.290;2023-02-03T08:13:57;101846.66;;;12.08;76.41
25232;BME280;13176;51.140;6.290;2023-02-03T08:16:24;101825.75;;;11.84;76.68
25232;BME280;13176;51.140;6.290;2023-02-03T08:18:50;101815.28;;;11.96;75.82
25232;BME280;13176;51.140;6.290;2023-02-03T08:21:17;101778.69;;;11.66;76.11
25232;BME280;13176;51.140;6.290;2023-02-03T08:23:43;101859.75;;;12.15;76.44
25232;BME280;13176;51.140;6.290;2023-02-03T08:26:10;101864.06;;;12.24;76.24
25232;BME280;13176;51.140;6.290;2023-02-03T08:28:36;101862.38;;;11.96;76.33
25232;BME280;13176;51.140;6.290;2023-02-03T08:31:09;101861.44;;;12.28;75.45
25232;BME280;13176;51.140;6.290;2023-02-03T08:33:36;101822.28;;;11.85;75.43
25232;BME280;13176;51.140;6.290;2023-02-03T08:36:03;101885.03;;;12.16;75.16
25232;BME280;13176;51.140;6.290;2023-02-03T08:38:31;101900.72;;;12.09;75.71
25232;BME280;13176;51.140;6.290;2023-02-03T08:40:57;101871.06;;;12.22;75.04
25232;BME280;13176;51.140;6.290;2023-02-03T08:43:24;101900.72;;;12.06;76.26
25232;BME280;13176;51.140;6.290;2023-02-03T08:45:50;101811.84;;;11.58;76.60
25232;BME280;13176;51.140;6.290;2023-02-03T08:48:17;101920.78;;;12.13;77.02
25232;BME280;13176;51.140;6.290;2023-02-03T08:50:43;101823.13;;;11.75;75.95
25232;BME280;13176;51.140;6.290;2023-02-03T08:53:17;101878.91;;;12.13;76.04
25232;BME280;13176;51.140;6.290;2023-02-03T08:55:43;101858.00;;;11.84;76.34
25232;BME280;13176;51.140;6.290;2023-02-03T08:58:10;101888.53;;;11.99;77.44
25232;BME280;13176;51.140;6.290;2023-02-03T09:00:36;101930.34;;;11.81;79.54
25232;BME280;13176;51.140;6.290;2023-02-03T09:03:03;101898.97;;;12.08;78.23
25232;BME280;13176;51.140;6.290;2023-02-03T09:05:30;101944.34;;;12.08;78.82
25232;BME280;13176;51.140;6.290;2023-02-03T09:07:56;101925.13;;;11.87;80.32
25232;BME280;13176;51.140;6.290;2023-02-03T09:10:23;101911.19;;;12.06;80.90
25232;BME280;13176;51.140;6.290;2023-02-03T09:12:49;101922.50;;;11.57;83.00
25232;BME280;13176;51.140;6.290;2023-02-03T09:15:16;101898.09;;;11.79;82.23
25232;BME280;13176;51.140;6.290;2023-02-03T09:17:43;101874.50;;;11.28;82.31
25232;BME280;13176;51.140;6.290;2023-02-03T09:20:09;101902.47;;;11.84;82.07
25232;BME280;13176;51.140;6.290;2023-02-03T09:22:38;101880.66;;;11.61;81.82
25232;BME280;13176;51.140;6.290;2023-02-03T09:25:05;101873.63;;;11.39;81.77
25232;BME280;13176;51.140;6.290;2023-02-03T09:27:32;101863.22;;;11.57;81.94
25232;BME280;13176;51.140;6.290;2023-02-03T09:29:58;101877.19;;;11.82;81.18
25232;BME280;13176;51.140;6.290;2023-02-03T09:32:25;101868.47;;;12.05;80.52
25232;BME280;13176;51.140;6.290;2023-02-03T09:34:51;101899.84;;;11.60;82.54
25232;BME280;13176;51.140;6.290;2023-02-03T09:37:18;101902.47;;;12.22;80.54
25232;BME280;13176;51.140;6.290;2023-02-03T09:39:44;101931.25;;;12.01;81.92
25232;BME280;13176;51.140;6.290;2023-02-03T09:42:25;101898.13;;;11.91;82.34
25232;BME280;13176;51.140;6.290;2023-02-03T09:47:35;101908.56;;;11.76;83.92
25232;BME280;13176;51.140;6.290;2023-02-03T09:50:06;101869.28;;;11.43;84.71
25232;BME280;13176;51.140;6.290;2023-02-03T09:52:38;101789.06;;;11.00;85.51
25232;BME280;13176;51.140;6.290;2023-02-03T09:55:16;101930.38;;;12.08;84.33
25232;BME280;13176;51.140;6.290;2023-02-03T09:57:53;101902.47;;;12.13;83.84
25232;BME280;13176;51.140;6.290;2023-02-03T10:00:29;101918.16;;;11.77;85.97
25232;BME280;13176;51.140;6.290;2023-02-03T10:05:53;101950.41;;;12.22;85.37
25232;BME280;13176;51.140;6.290;2023-02-03T10:14:45;101902.34;;;11.32;90.44
25232;BME280;13176;51.140;6.290;2023-02-03T10:17:23;101964.38;;;11.84;90.00
25232;BME280;13176;51.140;6.290;2023-02-03T10:19:57;101942.56;;;11.79;90.73
25232;BME280;13176;51.140;6.290;2023-02-03T10:22:28;101858.78;;;11.09;91.85
25232;BME280;13176;51.140;6.290;2023-02-03T10:25:04;101897.03;;;11.05;93.92
25232;BME280;13176;51.140;6.290;2023-02-03T10:27:33;101933.72;;;11.35;94.72
25232;BME280;13176;51.140;6.290;2023-02-03T10:30:09;101815.13;;;10.73;94.79
25232;BME280;13176;51.140;6.290;2023-02-03T10:32:42;101910.28;;;11.63;93.49
25232;BME280;13176;51.140;6.290;2023-02-03T10:35:12;101783.81;;;10.79;93.54
25232;BME280;13176;51.140;6.290;2023-02-03T10:37:44;101940.78;;;11.55;94.62
25232;BME280;13176;51.140;6.290;2023-02-03T10:40:14;101954.72;;;11.56;95.23
25232;BME280;13176;51.140;6.290;2023-02-03T10:42:47;101761.09;;;10.57;94.93
25232;BME280;13176;51.140;6.290;2023-02-03T10:45:40;101846.63;;;11.32;93.10
25232;BME280;13176;51.140;6.290;2023-02-03T10:48:14;101937.25;;;11.52;94.81
25232;BME280;13176;51.140;6.290;2023-02-03T10:50:44;101944.31;;;12.13;91.75
25232;BME280;13176;51.140;6.290;2023-02-03T10:53:39;101947.81;;;11.85;93.39
25232;BME280;13176;51.140;6.290;2023-02-03T10:56:10;101871.00;;;11.35;92.15
25232;BME280;13176;51.140;6.290;2023-02-03T10:58:40;101910.22;;;11.42;94.28
25232;BME280;13176;51.140;6.290;2023-02-03T11:01:13;101924.28;;;11.98;92.08
25232;BME280;13176;51.140;6.290;2023-02-03T11:03:42;101851.91;;;11.55;91.33
25232;BME280;13176;51.140;6.290;2023-02-03T11:06:14;101941.69;;;12.20;90.60
25232;BME280;13176;51.140;6.290;2023-02-03T11:08:44;101855.38;;;11.74;89.59
25232;BME280;13176;51.140;6.290;2023-02-03T11:11:21;101940.84;;;12.11;90.36
25232;BME280;13176;51.140;6.290;2023-02-03T11:14:10;101940.84;;;11.99;91.00
25232;BME280;13176;51.140;6.290;2023-02-03T11:16:38;101896.38;;;11.73;90.64
25232;BME280;13176;51.140;6.290;2023-02-03T11:19:17;101879.81;;;11.65;90.03
25232;BME280;13176;51.140;6.290;2023-02-03T11:21:47;101928.63;;;12.10;90.51
25232;BME280;13176;51.140;6.290;2023-02-03T11:24:30;101937.34;;;12.12;89.86
25232;BME280;13176;51.140;6.290;2023-02-03T11:27:05;101916.41;;;12.21;88.32
25232;BME280;13176;51.140;6.290;2023-02-03T11:29:35;101879.78;;;12.03;88.03
25232;BME280;13176;51.140;6.290;2023-02-03T11:37:28;101956.53;;;12.17;88.12
25232;BME280;13176;51.140;6.290;2023-02-03T11:40:24;101916.38;;;12.42;86.48
25232;BME280;13176;51.140;6.290;2023-02-03T11:45:27;101944.31;;;12.16;87.40
25232;BME280;13176;51.140;6.290;2023-02-03T11:48:01;101932.97;;;12.36;86.47
25232;BME280;13176;51.140;6.290;2023-02-03T11:53:46;101871.09;;;11.86;86.58
25232;BME280;13176;51.140;6.290;2023-02-03T12:02:13;101935.59;;;12.38;85.87
25232;BME280;13176;51.140;6.290;2023-02-03T12:13:55;101920.75;;;12.50;82.98
25232;BME280;13176;51.140;6.290;2023-02-03T12:19:23;101940.78;;;12.58;83.65
25232;BME280;13176;51.140;6.290;2023-02-03T12:22:05;101919.00;;;12.37;84.05
25232;BME280;13176;51.140;6.290;2023-02-03T12:28:50;101922.44;;;12.66;81.88
25232;BME280;13176;51.140;6.290;2023-02-03T12:31:35;101925.06;;;12.67;81.67
25232;BME280;13176;51.140;6.290;2023-02-03T12:34:18;101938.97;;;13.02;81.22
25232;BME280;13176;51.140;6.290;2023-02-03T12:36:56;101945.94;;;13.00;80.94
25232;BME280;13176;51.140;6.290;2023-02-03T12:39:46;101924.22;;;12.50;82.39
25232;BME280;13176;51.140;6.290;2023-02-03T12:42:46;101946.84;;;12.89;81.91
25232;BME280;13176;51.140;6.290;2023-02-03T12:45:20;101895.41;;;12.59;81.28
25232;BME280;13176;51.140;6.290;2023-02-03T12:48:15;101873.66;;;12.34;81.78
25232;BME280;13176;51.140;6.290;2023-02-03T12:50:49;101931.09;;;12.95;81.08
25232;BME280;13176;51.140;6.290;2023-02-03T12:53:28;101774.31;;;11.90;80.51
25232;BME280;13176;51.140;6.290;2023-02-03T12:56:03;101879.72;;;12.45;80.84
25232;BME280;13176;51.140;6.290;2023-02-03T12:58:43;101970.41;;;12.84;81.51
25232;BME280;13176;51.140;6.290;2023-02-03T13:01:20;101974.78;;;12.91;81.54
25232;BME280;13176;51.140;6.290;2023-02-03T13:07:15;101919.84;;;12.58;81.50
25232;BME280;13176;51.140;6.290;2023-02-03T13:09:52;101968.59;;;13.16;80.65
25232;BME280;13176;51.140;6.290;2023-02-03T13:12:34;101968.69;;;12.95;81.21
25232;BME280;13176;51.140;6.290;2023-02-03T13:17:53;101974.78;;;12.90;82.22
25232;BME280;13176;51.140;6.290;2023-02-03T13:20:23;101922.47;;;12.64;81.44
25232;BME280;13176;51.140;6.290;2023-02-03T13:22:51;101912.75;;;13.05;79.80
25232;BME280;13176;51.140;6.290;2023-02-03T13:33:29;101961.50;;;13.39;80.11
25232;BME280;13176;51.140;6.290;2023-02-03T13:36:10;101845.69;;;12.45;80.93
25232;BME280;13176;51.140;6.290;2023-02-03T13:44:11;101799.59;;;11.97;81.59
25232;BME280;13176;51.140;6.290;2023-02-03T13:46:41;101860.47;;;12.63;81.50
25232;BME280;13176;51.140;6.290;2023-02-03T13:49:08;101916.38;;;12.53;82.66
25232;BME280;13176;51.140;6.290;2023-02-03T13:51:41;101901.44;;;12.79;81.53
25232;BME280;13176;51.140;6.290;2023-02-03T13:54:24;101796.06;;;12.18;81.61
25232;BME280;13176;51.140;6.290;2023-02-03T13:56:58;101952.81;;;13.31;80.22
25232;BME280;13176;51.140;6.290;2023-02-03T13:59:40;101878.75;;;12.80;80.51
25232;BME280;13176;51.140;6.290;2023-02-03T14:04:52;101895.31;;;12.80;81.11
25232;BME280;13176;51.140;6.290;2023-02-03T14:12:54;101945.94;;;12.88;81.29
25232;BME280;13176;51.140;6.290;2023-02-03T14:15:31;101949.44;;;13.05;81.23
25232;BME280;13176;51.140;6.290;2023-02-03T14:17:59;101967.59;;;13.40;79.68
25232;BME280;13176;51.140;6.290;2023-02-03T14:22:58;101913.59;;;13.10;79.66
25232;BME280;13176;51.140;6.290;2023-02-03T14:25:37;101936.22;;;13.29;80.05
25232;BME280;13176;51.140;6.290;2023-02-03T14:28:07;101973.75;;;13.40;79.68
25232;BME280;13176;51.140;6.290;2023-02-03T14:31:04;101980.00;;;13.02;81.62
25232;BME280;13176;51.140;6.290;2023-02-03T14:38:57;101913.56;;;13.15;79.61
25232;BME280;13176;51.140;6.290;2023-02-03T14:44:11;101928.28;;;13.44;78.70